createdAt,value
2018-05-29T00:00:12.192Z,95189.44
2018-05-29T00:02:40.951Z,95186.66
2018-05-29T00:05:09.374Z,95182.05
2018-05-29T00:07:37.839Z,95180.75
2018-05-29T00:10:06.384Z,95183.50
2018-05-29T00:12:34.841Z,95174.39
2018-05-29T00:15:03.240Z,95183.50
2018-05-29T00:17:32.068Z,95180.74
2018-05-29T00:20:00.482Z,95174.97
2018-05-29T00:22:28.882Z,95177.64
2018-05-29T00:24:57.618Z,95175.27
2018-05-29T00:27:26.157Z,95176.73
2018-05-29T00:29:54.592Z,95169.77
2018-05-29T00:32:23.308Z,95173.73
2018-05-29T00:34:51.728Z,95176.91
2018-05-29T00:37:20.243Z,95172.91
2018-05-29T00:39:48.894Z,95175.91
2018-05-29T00:42:17.324Z,95176.75
2018-05-29T00:44:45.740Z,95168.66
2018-05-29T00:47:14.587Z,95169.42
2018-05-29T00:49:42.986Z,95172.05
2018-05-29T00:52:11.396Z,95174.27
2018-05-29T00:54:40.224Z,95169.33
2018-05-29T00:57:08.667Z,95173.94
2018-05-29T00:59:37.107Z,95166.14
2018-05-29T01:02:05.823Z,95168.17
2018-05-29T01:04:34.259Z,95165.48
2018-05-29T01:07:02.687Z,95175.99
2018-05-29T01:09:31.343Z,95169.52
2018-05-29T01:11:59.749Z,95159.67
2018-05-29T01:14:28.175Z,95165.97
2018-05-29T01:17:01.675Z,95155.95
2018-05-29T01:19:30.126Z,95157.44
2018-05-29T01:21:58.503Z,95159.37
2018-05-29T01:24:27.357Z,95159.91
2018-05-29T01:26:55.805Z,95157.92
2018-05-29T01:29:24.213Z,95161.53
2018-05-29T01:31:52.870Z,95163.45
2018-05-29T01:34:21.268Z,95160.98
2018-05-29T01:36:49.682Z,95152.42
2018-05-29T01:39:18.540Z,95156.20
2018-05-29T01:41:46.963Z,95157.65
2018-05-29T01:44:15.354Z,95161.31
2018-05-29T01:46:43.820Z,95163.41
2018-05-29T01:49:12.266Z,95165.48
2018-05-29T01:51:40.715Z,95166.44
2018-05-29T01:54:09.420Z,95166.68
2018-05-29T01:56:37.831Z,95169.37
2018-05-29T01:59:06.228Z,95173.41
2018-05-29T02:01:34.971Z,95176.11
2018-05-29T02:04:03.635Z,95164.50
2018-05-29T02:06:32.067Z,95173.41
2018-05-29T02:09:00.820Z,95173.75
2018-05-29T02:11:29.246Z,95169.48
2018-05-29T02:13:57.635Z,95168.88
2018-05-29T02:16:26.228Z,95171.45
2018-05-29T02:18:54.632Z,95170.63
2018-05-29T02:21:40.695Z,95169.53
2018-05-29T02:24:43.375Z,95169.82
2018-05-29T02:27:17.647Z,95177.75
2018-05-29T02:29:46.083Z,95180.50
2018-05-29T02:32:14.494Z,95187.21
2018-05-29T02:34:43.040Z,95197.38
2018-05-29T02:37:11.455Z,95196.38
2018-05-29T02:39:39.870Z,95200.45
2018-05-29T02:42:08.355Z,95203.45
2018-05-29T02:44:36.757Z,95202.89
2018-05-29T02:47:05.389Z,95210.36
2018-05-29T02:49:33.925Z,95215.13
2018-05-29T02:52:02.425Z,95212.95
2018-05-29T02:54:30.838Z,95214.83
2018-05-29T02:56:59.403Z,95209.55
2018-05-29T02:59:27.890Z,95205.23
2018-05-29T03:01:56.385Z,95212.49
2018-05-29T03:04:24.868Z,95216.53
2018-05-29T03:06:53.312Z,95193.38
2018-05-29T03:09:21.715Z,95215.28
2018-05-29T03:11:50.194Z,95218.72
2018-05-29T03:14:18.755Z,95224.47
2018-05-29T03:16:47.242Z,95225.38
2018-05-29T03:19:15.730Z,95231.06
2018-05-29T03:21:44.218Z,95231.25
2018-05-29T03:24:12.622Z,95234.17
2018-05-29T03:26:41.302Z,95226.90
2018-05-29T03:29:09.735Z,95235.86
2018-05-29T03:31:38.266Z,95233.47
2018-05-29T03:34:06.726Z,95230.20
2018-05-29T03:36:35.211Z,95228.72
2018-05-29T03:39:03.699Z,95239.47
2018-05-29T03:41:32.193Z,95241.08
2018-05-29T03:44:00.631Z,95235.05
2018-05-29T03:46:29.185Z,95235.72
2018-05-29T03:48:57.694Z,95241.78
2018-05-29T03:51:26.173Z,95238.00
2018-05-29T03:53:54.618Z,95228.54
2018-05-29T03:56:23.052Z,95231.63
2018-05-29T03:58:51.468Z,95227.17
2018-05-29T04:01:19.927Z,95231.92
2018-05-29T04:03:48.410Z,95234.52
2018-05-29T04:06:16.802Z,95227.33
2018-05-29T04:08:45.220Z,95232.22
2018-05-29T04:11:13.707Z,95229.31
2018-05-29T04:13:42.118Z,95236.52
2018-05-29T04:16:10.523Z,95225.41
2018-05-29T04:18:39.120Z,95227.59
2018-05-29T04:21:07.518Z,95223.39
2018-05-29T04:23:35.978Z,95203.89
2018-05-29T04:26:04.384Z,95224.44
2018-05-29T04:28:32.940Z,95228.48
2018-05-29T04:31:01.399Z,95229.17
2018-05-29T04:33:29.829Z,95226.13
2018-05-29T04:35:58.276Z,95224.53
2018-05-29T04:38:26.696Z,95233.05
2018-05-29T04:40:55.099Z,95233.95
2018-05-29T04:43:23.802Z,95229.23
2018-05-29T04:45:52.355Z,95229.88
2018-05-29T04:48:20.885Z,95225.91
2018-05-29T04:50:49.340Z,95224.48
2018-05-29T04:53:17.756Z,95219.19
2018-05-29T04:55:46.226Z,95219.46
2018-05-29T04:58:14.697Z,95227.77
2018-05-29T05:00:43.251Z,95230.94
2018-05-29T05:03:11.679Z,95227.50
2018-05-29T05:05:40.153Z,95226.84
2018-05-29T05:08:08.615Z,95224.42
2018-05-29T05:10:37.027Z,95232.78
2018-05-29T05:13:05.546Z,95226.18
2018-05-29T05:15:33.990Z,95226.18
2018-05-29T05:18:02.453Z,95219.30
2018-05-29T05:20:30.927Z,95222.64
2018-05-29T05:22:59.384Z,95219.50
2018-05-29T05:25:27.818Z,95217.58
2018-05-29T05:27:56.375Z,95213.35
2018-05-29T05:30:24.815Z,95213.82
2018-05-29T05:32:53.232Z,95210.98
2018-05-29T05:35:21.746Z,95212.25
2018-05-29T05:37:50.209Z,95209.60
2018-05-29T05:40:18.790Z,95210.16
2018-05-29T05:42:47.347Z,95210.78
2018-05-29T05:45:15.754Z,95208.92
2018-05-29T05:47:44.224Z,95213.76
2018-05-29T05:50:12.662Z,95210.34
2018-05-29T05:52:41.160Z,95217.51
2018-05-29T05:55:09.583Z,95215.25
2018-05-29T05:57:37.981Z,95220.55
2018-05-29T06:00:06.485Z,95222.02
2018-05-29T06:02:34.905Z,95200.28
2018-05-29T06:05:03.346Z,95222.29
2018-05-29T06:07:31.816Z,95209.96
2018-05-29T06:10:00.315Z,95217.45
2018-05-29T06:12:28.786Z,95216.02
2018-05-29T06:14:57.214Z,95217.08
2018-05-29T06:17:25.804Z,95218.02
2018-05-29T06:19:54.306Z,95207.73
2018-05-29T06:22:22.698Z,95216.85
2018-05-29T06:24:51.147Z,95218.94
2018-05-29T06:27:19.612Z,95209.27
2018-05-29T06:29:48.076Z,95212.31
2018-05-29T06:32:16.452Z,95207.15
2018-05-29T06:34:44.920Z,95211.12
2018-05-29T06:37:13.461Z,95216.69
2018-05-29T06:39:41.847Z,95197.45
2018-05-29T06:42:10.339Z,95217.77
2018-05-29T06:44:38.843Z,95212.34
2018-05-29T06:47:07.256Z,95217.55
2018-05-29T06:49:35.680Z,95213.18
2018-05-29T06:52:04.196Z,95209.44
2018-05-29T06:54:32.604Z,95214.13
2018-05-29T06:57:01.262Z,95214.01
2018-05-29T06:59:29.793Z,95209.54
2018-05-29T07:01:58.206Z,95214.30
2018-05-29T07:04:26.609Z,95204.04
2018-05-29T07:06:55.071Z,95211.72
2018-05-29T07:09:29.461Z,95215.48
2018-05-29T07:11:57.939Z,95208.27
2018-05-29T07:14:26.381Z,95207.02
2018-05-29T07:16:54.834Z,95203.77
2018-05-29T07:19:23.287Z,95207.43
2018-05-29T07:21:51.802Z,95203.52
2018-05-29T07:24:20.198Z,95201.03
2018-05-29T07:26:48.666Z,95202.73
2018-05-29T07:29:17.086Z,95207.85
2018-05-29T07:31:45.605Z,95201.29
2018-05-29T07:34:14.074Z,95198.55
2018-05-29T07:36:42.464Z,95188.02
2018-05-29T07:39:10.901Z,95192.19
2018-05-29T07:41:39.334Z,95196.97
2018-05-29T07:44:07.831Z,95196.73
2018-05-29T07:46:36.282Z,95194.17
2018-05-29T07:49:04.744Z,95196.10
2018-05-29T07:51:33.188Z,95198.54
2018-05-29T07:54:01.617Z,95192.96
2018-05-29T07:56:30.207Z,95189.58
2018-05-29T07:58:59.006Z,95190.11
2018-05-29T08:01:27.461Z,95187.98
2018-05-29T08:03:55.860Z,95181.97
2018-05-29T08:06:24.393Z,95182.56
2018-05-29T08:08:52.839Z,95186.23
2018-05-29T08:11:21.275Z,95185.64
2018-05-29T08:13:49.687Z,95185.20
2018-05-29T08:16:18.135Z,95195.73
2018-05-29T08:18:46.535Z,95185.95
2018-05-29T08:21:14.995Z,95180.92
2018-05-29T08:23:43.386Z,95182.03
2018-05-29T08:26:11.835Z,95180.97
2018-05-29T08:28:40.301Z,95179.55
2018-05-29T08:31:08.887Z,95171.22
2018-05-29T08:33:37.496Z,95185.47
2018-05-29T08:36:05.954Z,95182.85
2018-05-29T08:38:34.367Z,95175.03
2018-05-29T08:41:02.787Z,95152.06
2018-05-29T08:43:31.270Z,95169.36
2018-05-29T08:45:59.729Z,95165.22
2018-05-29T08:48:28.202Z,95164.96
2018-05-29T08:50:56.844Z,95169.59
2018-05-29T08:53:25.301Z,95166.49
2018-05-29T08:55:53.797Z,95159.85
2018-05-29T08:58:22.194Z,95163.22
2018-05-29T09:00:50.795Z,95152.17
2018-05-29T09:03:19.293Z,95151.08
2018-05-29T09:05:47.747Z,95133.81
2018-05-29T09:08:16.343Z,95151.25
2018-05-29T09:10:44.809Z,95141.66
2018-05-29T09:13:13.296Z,95153.19
2018-05-29T09:15:41.842Z,95106.19
2018-05-29T09:18:10.272Z,95143.35
2018-05-29T09:20:38.698Z,95140.53
2018-05-29T09:23:07.168Z,95142.19
2018-05-29T09:25:35.671Z,95146.14
2018-05-29T09:28:04.111Z,95141.40
2018-05-29T09:30:32.585Z,95133.59
2018-05-29T09:33:00.992Z,95132.42
2018-05-29T09:35:29.563Z,95139.50
2018-05-29T09:37:58.438Z,95120.25
2018-05-29T09:40:27.124Z,95125.97
2018-05-29T09:42:55.580Z,95118.16
2018-05-29T09:45:24.017Z,95113.48
2018-05-29T09:47:52.509Z,95124.05
2018-05-29T09:50:20.928Z,95119.82
2018-05-29T09:52:49.422Z,95118.83
2018-05-29T09:55:17.840Z,95123.28
2018-05-29T09:57:46.351Z,95118.34
2018-05-29T10:00:14.796Z,95115.13
2018-05-29T10:02:43.264Z,95111.30
2018-05-29T10:05:11.676Z,95117.20
2018-05-29T10:07:40.158Z,95099.02
2018-05-29T10:10:08.631Z,95114.86
2018-05-29T10:12:37.081Z,95111.05
2018-05-29T10:15:05.584Z,95123.82
2018-05-29T10:17:34.013Z,95107.47
2018-05-29T10:20:02.580Z,95113.03
2018-05-29T10:22:31.023Z,95106.69
2018-05-29T10:24:59.476Z,95102.73
2018-05-29T10:27:27.875Z,95103.46
2018-05-29T10:29:56.267Z,95101.44
2018-05-29T10:32:24.721Z,95042.91
2018-05-29T10:34:53.299Z,95106.15
2018-05-29T10:37:21.792Z,95097.99
2018-05-29T10:39:50.248Z,95102.81
2018-05-29T10:42:18.712Z,95093.05
2018-05-29T10:44:47.175Z,95092.20
2018-05-29T10:47:15.705Z,95077.52
2018-05-29T10:49:44.156Z,95089.73
2018-05-29T10:52:12.619Z,95089.80
2018-05-29T10:54:41.088Z,95082.00
2018-05-29T10:57:09.507Z,95082.17
2018-05-29T10:59:37.964Z,95083.70
2018-05-29T11:02:06.434Z,95077.03
2018-05-29T11:04:34.888Z,95077.17
2018-05-29T11:07:03.346Z,95069.18
2018-05-29T11:09:31.826Z,95065.44
2018-05-29T11:12:00.257Z,95065.65
2018-05-29T11:14:28.728Z,95073.98
2018-05-29T11:16:57.149Z,95066.46
2018-05-29T11:19:25.644Z,95069.45
2018-05-29T11:21:54.199Z,95054.81
2018-05-29T11:24:22.631Z,95045.95
2018-05-29T11:26:51.102Z,95051.06
2018-05-29T11:29:19.612Z,95056.00
2018-05-29T11:31:48.028Z,95058.50
2018-05-29T11:34:16.470Z,95057.25
2018-05-29T11:36:44.934Z,95038.80
2018-05-29T11:39:13.437Z,95055.98
2018-05-29T11:41:41.901Z,95049.05
2018-05-29T11:44:10.320Z,95055.20
2018-05-29T11:46:38.805Z,95054.06
2018-05-29T11:49:07.246Z,95052.05
2018-05-29T11:51:35.704Z,95055.45
2018-05-29T11:54:04.132Z,95053.73
2018-05-29T11:56:32.553Z,95046.66
2018-05-29T11:59:00.984Z,95049.72
2018-05-29T12:01:29.470Z,95058.63
2018-05-29T12:03:57.975Z,95054.77
2018-05-29T12:06:26.360Z,95046.64
2018-05-29T12:08:54.970Z,95056.86
2018-05-29T12:11:23.367Z,95057.66
2018-05-29T12:13:51.848Z,95056.16
2018-05-29T12:16:20.227Z,95049.72
2018-05-29T12:18:48.723Z,95053.81
2018-05-29T12:21:17.224Z,95042.81
2018-05-29T12:23:45.627Z,95046.70
2018-05-29T12:26:14.031Z,95051.54
2018-05-29T12:28:42.524Z,95031.58
2018-05-29T12:31:10.929Z,95034.79
2018-05-29T12:33:39.424Z,95038.19
2018-05-29T12:36:07.877Z,95030.20
2018-05-29T12:38:36.324Z,95031.70
2018-05-29T12:41:04.836Z,95018.38
2018-05-29T12:43:33.227Z,95023.08
2018-05-29T12:46:01.761Z,95029.54
2018-05-29T12:48:30.197Z,95026.32
2018-05-29T12:50:58.601Z,95030.23
2018-05-29T12:53:27.068Z,95024.63
2018-05-29T12:55:55.600Z,95026.15
2018-05-29T12:58:24.186Z,95025.91
2018-05-29T13:00:52.757Z,95025.48
2018-05-29T13:03:21.238Z,95006.39
2018-05-29T13:05:49.701Z,95017.95
2018-05-29T13:08:18.157Z,95000.31
2018-05-29T13:10:46.644Z,95010.27
2018-05-29T13:13:15.075Z,95018.40
2018-05-29T13:15:43.504Z,95013.84
2018-05-29T13:18:12.024Z,95018.98
2018-05-29T13:20:40.465Z,95010.00
2018-05-29T13:23:09.023Z,95020.50
2018-05-29T13:25:37.515Z,95009.30
2018-05-29T13:28:06.105Z,95006.02
2018-05-29T13:30:34.805Z,95013.15
2018-05-29T13:33:03.259Z,95002.58
2018-05-29T13:35:31.731Z,95004.31
2018-05-29T13:38:00.492Z,95007.98
2018-05-29T13:40:28.923Z,95006.69
2018-05-29T13:42:57.314Z,94990.28
2018-05-29T13:45:25.967Z,95002.27
2018-05-29T13:47:54.354Z,95004.49
2018-05-29T13:50:22.757Z,95001.23
2018-05-29T13:52:51.582Z,95009.84
2018-05-29T13:55:20.025Z,95009.22
2018-05-29T13:57:48.464Z,95005.56
2018-05-29T14:00:17.275Z,94998.89
2018-05-29T14:02:45.687Z,94994.78
2018-05-29T14:05:14.165Z,94991.09
2018-05-29T14:07:42.569Z,94994.97
2018-05-29T14:10:10.974Z,94988.15
2018-05-29T14:12:39.442Z,94997.13
2018-05-29T14:15:07.840Z,94996.03
2018-05-29T14:17:36.260Z,95003.80
2018-05-29T14:20:04.739Z,94993.34
2018-05-29T14:22:33.147Z,94990.11
2018-05-29T14:25:01.690Z,94987.36
2018-05-29T14:27:30.188Z,94991.44
2018-05-29T14:29:58.611Z,94984.43
2018-05-29T14:32:27.011Z,94974.61
2018-05-29T14:34:55.439Z,94977.56
2018-05-29T14:37:23.809Z,94982.09
2018-05-29T14:39:52.207Z,94975.27
2018-05-29T14:42:21.118Z,94969.41
2018-05-29T14:44:49.517Z,94962.17
2018-05-29T14:47:18.302Z,94958.23
2018-05-29T14:49:47.079Z,94971.53
2018-05-29T14:52:15.523Z,94960.20
2018-05-29T14:54:44.066Z,94962.43
2018-05-29T14:57:12.730Z,94945.00
2018-05-29T14:59:41.135Z,94957.75
2018-05-29T15:02:09.666Z,94951.02
2018-05-29T15:04:38.273Z,94956.05
2018-05-29T15:07:06.841Z,94950.27
2018-05-29T15:09:35.247Z,94954.98
2018-05-29T15:12:04.025Z,94953.70
2018-05-29T15:14:32.604Z,94951.01
2018-05-29T15:17:01.029Z,94946.64
2018-05-29T15:19:29.750Z,94928.39
2018-05-29T15:21:58.144Z,94944.45
2018-05-29T15:24:26.528Z,94934.38
2018-05-29T15:26:54.989Z,94937.70
2018-05-29T15:29:23.402Z,94932.14
2018-05-29T15:31:51.825Z,94924.53
2018-05-29T15:34:20.520Z,94931.42
2018-05-29T15:36:48.888Z,94925.48
2018-05-29T15:39:17.291Z,94925.80
2018-05-29T15:41:46.030Z,94928.81
2018-05-29T15:44:14.436Z,94926.88
2018-05-29T15:46:42.863Z,94921.27
2018-05-29T15:49:11.740Z,94915.39
2018-05-29T15:51:40.153Z,94913.52
2018-05-29T15:54:08.526Z,94911.30
2018-05-29T15:56:37.275Z,94911.92
2018-05-29T15:59:05.679Z,94911.23
2018-05-29T16:01:34.098Z,94925.98
2018-05-29T16:04:02.538Z,94914.22
2018-05-29T16:06:30.955Z,94908.59
2018-05-29T16:08:59.391Z,94910.95
2018-05-29T16:11:27.821Z,94886.31
2018-05-29T16:13:56.222Z,94918.86
2018-05-29T16:16:24.624Z,94921.72
2018-05-29T16:18:53.231Z,94914.70
2018-05-29T16:21:21.644Z,94929.05
2018-05-29T16:23:50.063Z,94931.37
2018-05-29T16:26:18.811Z,94927.45
2018-05-29T16:28:47.180Z,94918.48
2018-05-29T16:31:15.625Z,94923.70
2018-05-29T16:33:44.350Z,94926.60
2018-05-29T16:36:12.834Z,94922.02
2018-05-29T16:38:41.496Z,94921.45
2018-05-29T16:41:10.199Z,94918.88
2018-05-29T16:43:44.119Z,94916.25
2018-05-29T16:46:13.001Z,94917.16
2018-05-29T16:48:41.392Z,94896.05
2018-05-29T16:51:09.782Z,94898.58
2018-05-29T16:53:38.507Z,94918.39
2018-05-29T16:56:06.927Z,94923.52
2018-05-29T16:58:35.321Z,94940.30
2018-05-29T17:01:03.758Z,94922.83
2018-05-29T17:03:32.163Z,94863.31
2018-05-29T17:06:00.553Z,94921.20
2018-05-29T17:08:29.352Z,94928.27
2018-05-29T17:10:57.747Z,94926.80
2018-05-29T17:13:26.152Z,94919.08
2018-05-29T17:15:54.866Z,94922.41
2018-05-29T17:18:23.272Z,94924.62
2018-05-29T17:20:51.665Z,94922.48
2018-05-29T17:23:20.099Z,94931.22
2018-05-29T17:25:48.524Z,94929.39
2018-05-29T17:28:16.927Z,94930.55
2018-05-29T17:30:45.616Z,94930.83
2018-05-29T17:33:14.011Z,94938.24
2018-05-29T17:35:42.415Z,94938.29
2018-05-29T17:38:11.127Z,94934.70
2018-05-29T17:40:39.516Z,94934.08
2018-05-29T17:43:07.933Z,94948.20
2018-05-29T17:45:36.696Z,94950.82
2018-05-29T17:48:05.090Z,94951.71
2018-05-29T17:50:33.487Z,94949.66
2018-05-29T17:53:02.223Z,94937.22
2018-05-29T17:55:30.624Z,94949.73
2018-05-29T17:57:59.042Z,94959.18
2018-05-29T18:00:27.666Z,94960.69
2018-05-29T18:02:56.055Z,94967.59
2018-05-29T18:05:24.466Z,94962.98
2018-05-29T18:07:53.158Z,94973.94
2018-05-29T18:10:21.558Z,94963.16
2018-05-29T18:12:50.032Z,94969.38
2018-05-29T18:15:18.763Z,94969.08
2018-05-29T18:17:47.162Z,94973.69
2018-05-29T18:20:15.555Z,94980.00
2018-05-29T18:22:44.325Z,94971.75
2018-05-29T18:25:12.779Z,94971.97
2018-05-29T18:27:41.170Z,94974.77
2018-05-29T18:30:09.594Z,94977.56
2018-05-29T18:32:38.085Z,94982.20
2018-05-29T18:35:06.475Z,94984.07
2018-05-29T18:37:35.088Z,94986.55
2018-05-29T18:40:03.523Z,94995.75
2018-05-29T18:42:31.920Z,94997.51
2018-05-29T18:45:00.483Z,94998.23
2018-05-29T18:47:28.883Z,94997.56
2018-05-29T18:49:57.382Z,95004.16
2018-05-29T18:52:25.732Z,95009.58
2018-05-29T18:54:54.117Z,95011.88
2018-05-29T18:57:22.488Z,95007.59
2018-05-29T18:59:51.336Z,95007.28
2018-05-29T19:02:19.719Z,95015.87
2018-05-29T19:04:48.128Z,95022.61
2018-05-29T19:07:16.899Z,95018.41
2018-05-29T19:09:45.289Z,95018.23
2018-05-29T19:12:13.707Z,95018.84
2018-05-29T19:14:42.544Z,95013.41
2018-05-29T19:17:11.033Z,95020.88
2018-05-29T19:19:39.465Z,95019.43
2018-05-29T19:22:08.203Z,95023.01
2018-05-29T19:24:36.600Z,95026.36
2018-05-29T19:27:04.992Z,94997.91
2018-05-29T19:29:33.720Z,95027.84
2018-05-29T19:32:02.123Z,95028.33
2018-05-29T19:34:30.554Z,95032.95
2018-05-29T19:36:58.983Z,95035.44
2018-05-29T19:39:27.379Z,95039.31
2018-05-29T19:41:55.760Z,95040.05
2018-05-29T19:44:25.033Z,95036.20
2018-05-29T19:46:53.427Z,95042.59
2018-05-29T19:49:21.819Z,95046.16
2018-05-29T19:51:50.271Z,95042.46
2018-05-29T19:54:18.721Z,95044.46
2018-05-29T19:56:47.115Z,95045.52
2018-05-29T19:59:15.816Z,95039.00
2018-05-29T20:01:44.198Z,95038.16
2018-05-29T20:04:12.765Z,95036.16
2018-05-29T20:06:41.186Z,95037.11
2018-05-29T20:09:09.618Z,95045.12
2018-05-29T20:11:38.035Z,95037.53
2018-05-29T20:14:06.485Z,95039.11
2018-05-29T20:16:34.945Z,95042.73
2018-05-29T20:19:03.336Z,95034.02
2018-05-29T20:21:31.821Z,95039.31
2018-05-29T20:24:00.212Z,95039.37
2018-05-29T20:26:28.640Z,95043.23
2018-05-29T20:28:57.362Z,95041.98
2018-05-29T20:31:25.770Z,95040.49
2018-05-29T20:33:54.193Z,95035.94
2018-05-29T20:36:23.176Z,95012.55
2018-05-29T20:38:51.578Z,95030.67
2018-05-29T20:41:19.978Z,95034.00
2018-05-29T20:43:48.759Z,95030.19
2018-05-29T20:46:17.122Z,95039.55
2018-05-29T20:48:45.504Z,95043.06
2018-05-29T20:51:14.076Z,95043.74
2018-05-29T20:53:42.462Z,95038.23
2018-05-29T20:56:10.844Z,95027.33
2018-05-29T20:58:39.610Z,95031.75
2018-05-29T21:01:08.050Z,94975.42
2018-05-29T21:03:36.452Z,95027.00
2018-05-29T21:06:05.260Z,95031.68
2018-05-29T21:08:33.637Z,95022.77
2018-05-29T21:11:02.043Z,95026.78
2018-05-29T21:13:30.708Z,95023.02
2018-05-29T21:15:59.226Z,95024.94
2018-05-29T21:18:27.615Z,95022.03
2018-05-29T21:20:56.253Z,95023.80
2018-05-29T21:23:24.640Z,95029.89
2018-05-29T21:25:53.031Z,95029.36
2018-05-29T21:28:21.488Z,94993.54
2018-05-29T21:30:49.884Z,95026.92
2018-05-29T21:33:18.317Z,95026.98
2018-05-29T21:35:46.943Z,95018.48
2018-05-29T21:38:15.323Z,95019.82
2018-05-29T21:40:43.692Z,95031.99
2018-05-29T21:43:12.287Z,95021.99
2018-05-29T21:45:40.675Z,95011.91
2018-05-29T21:48:09.063Z,95012.74
2018-05-29T21:50:37.832Z,95013.41
2018-05-29T21:53:06.212Z,95013.99
2018-05-29T21:55:34.598Z,95011.84
2018-05-29T21:58:03.404Z,95012.73
2018-05-29T22:00:31.791Z,95011.61
2018-05-29T22:03:00.214Z,95007.39
2018-05-29T22:05:28.659Z,95008.00
2018-05-29T22:07:57.059Z,95004.00
2018-05-29T22:10:25.455Z,95008.53
2018-05-29T22:12:53.931Z,95009.55
2018-05-29T22:15:22.592Z,95001.16
2018-05-29T22:17:50.990Z,94998.34
2018-05-29T22:20:19.824Z,94997.33
2018-05-29T22:22:48.292Z,94995.70
2018-05-29T22:25:16.721Z,94994.95
2018-05-29T22:27:45.150Z,94999.84
2018-05-29T22:30:13.612Z,94998.28
2018-05-29T22:32:41.985Z,94998.95
2018-05-29T22:35:10.741Z,94995.64
2018-05-29T22:37:39.131Z,94993.59
2018-05-29T22:40:07.519Z,94991.67
2018-05-29T22:42:36.264Z,94986.41
2018-05-29T22:45:04.655Z,94988.39
2018-05-29T22:47:33.079Z,94974.12
2018-05-29T22:50:01.727Z,94980.19
2018-05-29T22:52:30.137Z,94981.06
2018-05-29T22:54:58.559Z,94976.61
2018-05-29T22:57:27.255Z,94977.07
2018-05-29T22:59:55.635Z,94978.81
2018-05-29T23:02:24.032Z,94969.22
2018-05-29T23:04:52.807Z,94971.88
2018-05-29T23:13:51.294Z,94977.66
2018-05-29T23:16:19.707Z,94967.92
2018-05-29T23:18:48.134Z,94966.08
2018-05-29T23:21:16.778Z,94967.42
2018-05-29T23:23:45.191Z,94970.44
2018-05-29T23:26:13.599Z,94971.23
2018-05-29T23:28:42.441Z,94972.02
2018-05-29T23:31:10.867Z,94965.84
2018-05-29T23:33:39.269Z,94965.31
2018-05-29T23:36:07.723Z,94957.83
2018-05-29T23:38:36.157Z,94957.44
2018-05-29T23:41:04.556Z,94959.16
2018-05-29T23:43:33.338Z,94960.34
2018-05-29T23:46:01.749Z,94956.52
2018-05-29T23:48:30.154Z,94962.97
2018-05-29T23:50:58.979Z,94957.19
2018-05-29T23:53:27.551Z,94964.26
2018-05-29T23:55:55.960Z,94964.33
2018-05-29T23:58:24.703Z,94956.55
